Kittery Point, Maine
Current Conditions -  °F | °C
As of 9:58 PM on Thursday 18 Dec 2014 (Local Time) from KPSM Reporting Station
Broken Clouds Broken Clouds  
Wind Chill: 25°   Ceiling: 5000
Heat Index: 34°   Visibility: 10mi
Dew Point: 24°   Wind: 13mph
Humidity: 67%   Direction: 290°WNW
Pressure: 29.82"   Gusts: 20mph
Location:  43.08°N, 70.7°W
Report Text: KPSM 190258Z 29011G17KT 10SM FEW032 BKN050 01/M04 A2982 RMK AO2A SLP102 T00131042 50007
Loading
Personal Weather Stations






























Interactive Weather Map New forecast layout! Learn more

10-Day Weather Forecast

Advertisements
Track Severe Weather on mobile